createdAt,value
2023-08-27T00:00:25.721Z,100.00
2023-08-27T00:12:26.190Z,100.00
2023-08-27T00:24:26.738Z,100.00
2023-08-27T00:36:27.118Z,100.00
2023-08-27T00:48:27.581Z,100.00
2023-08-27T01:00:28.011Z,100.00
2023-08-27T01:12:28.507Z,100.00
2023-08-27T01:24:28.922Z,100.00
2023-08-27T01:36:29.381Z,100.00
2023-08-27T01:48:29.866Z,100.00
2023-08-27T02:00:30.337Z,100.00
2023-08-27T02:12:30.753Z,100.00
2023-08-27T02:24:31.193Z,100.00
2023-08-27T02:36:31.650Z,100.00
2023-08-27T02:48:32.161Z,100.00
2023-08-27T03:00:32.609Z,100.00
2023-08-27T03:12:33.042Z,100.00
2023-08-27T03:24:33.501Z,100.00
2023-08-27T03:36:33.981Z,100.00
2023-08-27T03:48:34.371Z,100.00
2023-08-27T04:00:34.829Z,100.00
2023-08-27T04:12:37.497Z,100.00
2023-08-27T04:24:35.822Z,100.00
2023-08-27T04:36:36.193Z,100.00
2023-08-27T04:48:36.653Z,100.00
2023-08-27T05:00:37.129Z,100.00
2023-08-27T05:12:37.640Z,100.00
2023-08-27T05:24:38.028Z,100.00
2023-08-27T05:36:38.514Z,100.00
2023-08-27T05:48:38.939Z,100.00
2023-08-27T06:00:39.402Z,100.00
2023-08-27T06:12:39.865Z,100.00
2023-08-27T06:24:40.352Z,100.00
2023-08-27T06:36:40.750Z,94.44
2023-08-27T06:48:41.274Z,100.00
2023-08-27T07:00:41.685Z,90.67
2023-08-27T07:12:42.127Z,87.42
2023-08-27T07:24:42.584Z,89.02
2023-08-27T07:36:43.046Z,80.46
2023-08-27T07:48:43.494Z,74.60
2023-08-27T08:00:43.981Z,80.49
2023-08-27T08:12:44.388Z,76.67
2023-08-27T08:24:44.861Z,76.12
2023-08-27T08:36:45.334Z,78.94
2023-08-27T08:48:45.756Z,74.04
2023-08-27T09:00:46.228Z,73.88
2023-08-27T09:12:46.690Z,72.65
2023-08-27T09:24:47.132Z,69.85
2023-08-27T09:36:47.630Z,66.12
2023-08-27T09:48:48.075Z,53.58
2023-08-27T10:00:48.503Z,60.28
2023-08-27T10:12:48.978Z,58.30
2023-08-27T10:24:49.424Z,58.13
2023-08-27T10:36:49.869Z,60.00
2023-08-27T10:48:50.364Z,57.79
2023-08-27T11:00:50.848Z,57.95
2023-08-27T11:12:51.229Z,58.14
2023-08-27T11:24:51.707Z,56.59
2023-08-27T11:36:52.212Z,55.24
2023-08-27T11:48:52.603Z,53.80
2023-08-27T12:00:54.231Z,51.15
2023-08-27T12:12:53.564Z,54.01
2023-08-27T12:24:54.030Z,55.40
2023-08-27T12:36:54.492Z,52.93
2023-08-27T12:48:54.937Z,55.07
2023-08-27T13:00:55.347Z,50.76
2023-08-27T13:12:55.818Z,51.54
2023-08-27T13:24:56.260Z,52.13
2023-08-27T13:36:56.814Z,47.57
2023-08-27T13:48:57.187Z,49.62
2023-08-27T14:00:57.673Z,50.87
2023-08-27T14:12:58.102Z,48.24
2023-08-27T14:24:58.552Z,46.66
2023-08-27T14:36:59.058Z,52.02
2023-08-27T14:48:59.480Z,50.91
2023-08-27T15:00:59.978Z,53.75
2023-08-27T15:13:00.386Z,56.61
2023-08-27T15:25:00.845Z,58.82
2023-08-27T15:37:01.314Z,70.07
2023-08-27T15:49:01.780Z,83.53
2023-08-27T16:01:02.284Z,79.43
2023-08-27T16:13:02.702Z,81.47
2023-08-27T16:25:03.170Z,87.91
2023-08-27T16:37:03.617Z,90.59
2023-08-27T16:49:04.073Z,100.00
2023-08-27T17:01:04.497Z,100.00
2023-08-27T17:13:05.007Z,100.00
2023-08-27T17:25:05.425Z,100.00
2023-08-27T17:37:05.874Z,100.00
2023-08-27T17:49:06.336Z,100.00
2023-08-27T18:01:06.852Z,100.00
2023-08-27T18:13:07.271Z,97.65
2023-08-27T18:25:07.717Z,99.16
2023-08-27T18:37:08.159Z,100.00
2023-08-27T18:49:08.672Z,100.00
2023-08-27T19:01:09.130Z,100.00
2023-08-27T19:13:09.527Z,100.00
2023-08-27T19:25:10.029Z,100.00
2023-08-27T19:37:10.451Z,100.00
2023-08-27T19:49:10.915Z,100.00
2023-08-27T20:01:11.339Z,100.00
2023-08-27T20:13:11.856Z,100.00
2023-08-27T20:25:12.301Z,100.00
2023-08-27T20:37:12.716Z,100.00
2023-08-27T20:49:13.240Z,100.00
2023-08-27T21:01:13.705Z,100.00
2023-08-27T21:13:14.101Z,100.00
2023-08-27T21:25:14.540Z,100.00
2023-08-27T21:37:15.993Z,100.00
2023-08-27T21:49:15.432Z,100.00
2023-08-27T22:01:16.108Z,100.00
2023-08-27T22:13:16.349Z,100.00
2023-08-27T22:25:16.820Z,100.00
2023-08-27T22:37:17.258Z,100.00
2023-08-27T22:49:17.781Z,100.00
2023-08-27T23:01:18.253Z,100.00
2023-08-27T23:13:18.691Z,100.00
2023-08-27T23:25:19.111Z,100.00
2023-08-27T23:37:19.579Z,100.00
2023-08-27T23:49:19.982Z,100.00
